Time;durP1;ratioP1;P1;durP2;ratioP2;P2;SDS_P1;SDS_P2;PMS_P1;PMS_P2;Temp;Humidity;BMP_temperature;BMP_pressure;BME280_temperature;BME280_humidity;BME280_pressure;Samples;Min_cycle;Max_cycle;Signal;HPM_P1;HPM_P2
2021/12/02 00:00:43;;;;;;;1.57;1.10;;;;;17.50;98631.00;;;;2068552;28;20655;-46
2021/12/02 00:01:43;;;;;;;1.70;1.10;;;;;17.50;98631.00;;;;2069930;28;20214;-46
2021/12/02 00:02:44;;;;;;;2.07;1.37;;;;;17.60;98637.00;;;;2070077;28;20226;-46
2021/12/02 00:03:46;;;;;;;1.60;1.27;;;;;17.50;98638.00;;;;2068342;28;20720;-46
2021/12/02 00:04:48;;;;;;;1.70;1.05;;;;;17.50;98635.00;;;;2070186;28;20226;-46
2021/12/02 00:05:48;;;;;;;1.88;0.85;;;;;17.50;98638.00;;;;2063375;28;20205;-46
2021/12/02 00:06:50;;;;;;;1.50;1.20;;;;;17.50;98641.00;;;;2076799;28;20283;-46
2021/12/02 00:07:51;;;;;;;2.65;1.15;;;;;17.50;98640.00;;;;2069958;28;20249;-46
2021/12/02 00:08:51;;;;;;;2.17;1.20;;;;;17.50;98633.00;;;;2070483;28;20273;-46
2021/12/02 00:09:52;;;;;;;3.90;1.07;;;;;17.50;98644.00;;;;2071444;28;20295;-46
2021/12/02 00:10:52;;;;;;;0.93;0.83;;;;;17.50;98636.00;;;;2069667;28;20275;-46
2021/12/02 00:11:52;;;;;;;1.60;1.10;;;;;17.50;98633.00;;;;2071467;28;20708;-46
2021/12/02 00:12:55;;;;;;;1.33;1.13;;;;;17.50;98646.00;;;;2071019;28;20682;-46
2021/12/02 00:13:58;;;;;;;1.60;1.20;;;;;17.50;98643.00;;;;2070527;28;20225;-46
2021/12/02 00:15:05;;;;;;;1.58;1.08;;;;;17.50;98637.00;;;;2071069;28;20210;-46
2021/12/02 00:16:18;;;;;;;1.35;1.10;;;;;17.50;98634.00;;;;2071507;28;20286;-47
2021/12/02 00:17:26;;;;;;;1.50;1.35;;;;;17.50;98642.00;;;;2071025;28;20260;-46
2021/12/02 00:22:04;;;;;;;1.60;1.20;;;;;17.50;98643.00;;;;2076729;28;20206;-46
2021/12/02 00:23:22;;;;;;;2.57;1.30;;;;;17.50;98633.00;;;;2068041;28;20301;-46
2021/12/02 00:24:24;;;;;;;1.40;0.90;;;;;17.50;98640.00;;;;2075207;28;20252;-46
2021/12/02 00:25:24;;;;;;;1.48;0.93;;;;;17.50;98645.00;;;;2078734;28;20279;-46
2021/12/02 00:26:25;;;;;;;1.47;1.00;;;;;17.50;98647.00;;;;2078663;28;20689;-46
2021/12/02 00:27:29;;;;;;;2.73;1.10;;;;;17.50;98648.00;;;;2062760;28;20219;-46
2021/12/02 00:28:29;;;;;;;1.95;1.40;;;;;17.50;98650.00;;;;2070848;28;20875;-46
2021/12/02 00:29:30;;;;;;;1.73;0.90;;;;;17.50;98654.00;;;;2070527;28;20321;-51
2021/12/02 00:30:30;;;;;;;1.30;1.00;;;;;17.50;98647.00;;;;2065018;28;20718;-48
2021/12/02 00:31:33;;;;;;;2.27;1.30;;;;;17.50;98652.00;;;;2067185;28;20697;-47
2021/12/02 00:32:33;;;;;;;2.03;0.90;;;;;17.50;98649.00;;;;2079067;28;20217;-46
2021/12/02 00:33:34;;;;;;;1.73;1.20;;;;;17.50;98651.00;;;;2070788;28;20222;-46
2021/12/02 00:34:36;;;;;;;1.60;1.20;;;;;17.50;98649.00;;;;2062669;28;20219;-46
2021/12/02 00:35:37;;;;;;;2.15;1.00;;;;;17.50;98655.00;;;;2070658;28;21125;-46
2021/12/02 00:36:38;;;;;;;2.87;1.60;;;;;17.50;98650.00;;;;2067503;28;20317;-46
2021/12/02 00:37:38;;;;;;;1.83;1.35;;;;;17.50;98657.00;;;;2071329;28;20230;-46
2021/12/02 00:38:40;;;;;;;1.37;1.00;;;;;17.50;98657.00;;;;2069441;28;20225;-46
2021/12/02 00:39:40;;;;;;;1.50;1.20;;;;;17.50;98647.00;;;;2070823;28;20226;-46
2021/12/02 00:40:40;;;;;;;1.60;1.17;;;;;17.50;98656.00;;;;2070527;28;20488;-46
2021/12/02 00:41:41;;;;;;;1.67;1.00;;;;;17.50;98652.00;;;;2070579;28;20230;-46
2021/12/02 00:42:42;;;;;;;2.00;0.95;;;;;17.50;98649.00;;;;2062698;28;20211;-46
2021/12/02 00:43:42;;;;;;;1.57;0.97;;;;;17.50;98656.00;;;;2068147;28;20202;-46
2021/12/02 00:44:43;;;;;;;1.77;0.97;;;;;17.50;98661.00;;;;2070348;28;20238;-46
2021/12/02 00:45:44;;;;;;;2.30;1.30;;;;;17.50;98659.00;;;;2069656;28;20635;-46
2021/12/02 00:46:45;;;;;;;1.35;1.00;;;;;17.50;98659.00;;;;2067412;28;20288;-46
2021/12/02 00:47:46;;;;;;;4.25;1.50;;;;;17.50;98655.00;;;;2078806;28;20217;-46
2021/12/02 00:48:46;;;;;;;1.37;0.80;;;;;17.50;98659.00;;;;2079483;28;20285;-46
2021/12/02 00:49:47;;;;;;;1.80;1.13;;;;;17.50;98656.00;;;;2078810;28;20587;-46
2021/12/02 00:50:48;;;;;;;2.00;1.10;;;;;17.50;98656.00;;;;2078630;28;20220;-46
2021/12/02 00:51:54;;;;;;;1.70;0.90;;;;;17.50;98658.00;;;;2078855;28;20225;-46
2021/12/02 00:52:55;;;;;;;2.22;1.30;;;;;17.50;98656.00;;;;2079832;28;20224;-46
2021/12/02 00:53:58;;;;;;;1.70;1.00;;;;;17.50;98650.00;;;;2070730;28;20246;-46
2021/12/02 00:54:58;;;;;;;3.30;1.30;;;;;17.50;98650.00;;;;2071105;28;20736;-46
2021/12/02 00:56:02;;;;;;;1.80;1.10;;;;;17.50;98661.00;;;;2075682;28;20229;-46
2021/12/02 00:57:02;;;;;;;1.35;1.00;;;;;17.50;98662.00;;;;2078071;28;20274;-46
2021/12/02 00:58:03;;;;;;;1.60;1.10;;;;;17.50;98659.00;;;;2077985;28;20578;-46
2021/12/02 00:59:03;;;;;;;2.00;1.10;;;;;17.40;98666.00;;;;2078902;28;20217;-46
2021/12/02 01:00:05;;;;;;;1.88;1.10;;;;;17.40;98652.00;;;;2076171;28;20675;-52
2021/12/02 01:01:06;;;;;;;1.30;0.98;;;;;17.40;98660.00;;;;2073714;28;20296;-46
2021/12/02 01:02:07;;;;;;;1.92;1.30;;;;;17.50;98656.00;;;;2069234;28;20730;-46
2021/12/02 01:03:08;;;;;;;1.80;1.10;;;;;17.50;98664.00;;;;2068984;28;20225;-46
2021/12/02 01:04:12;;;;;;;2.33;1.30;;;;;17.50;98663.00;;;;2062697;28;20209;-46
2021/12/02 01:05:13;;;;;;;1.30;0.90;;;;;17.50;98660.00;;;;2062903;28;20275;-45
2021/12/02 01:06:13;;;;;;;2.22;1.15;;;;;17.50;98658.00;;;;2075154;28;20205;-45
2021/12/02 01:07:14;;;;;;;1.10;0.80;;;;;17.50;98662.00;;;;2078391;28;20202;-45
2021/12/02 01:08:14;;;;;;;2.23;1.30;;;;;17.50;98665.00;;;;2078489;28;20209;-48
2021/12/02 01:09:14;;;;;;;2.80;1.30;;;;;17.50;98660.00;;;;2072493;28;20228;-46
2021/12/02 01:10:15;;;;;;;2.00;1.27;;;;;17.50;98629.00;;;;2070921;28;20596;-46
2021/12/02 01:11:17;;;;;;;2.17;1.10;;;;;17.50;98660.00;;;;2069757;28;20579;-46
2021/12/02 01:12:17;;;;;;;2.08;1.10;;;;;17.50;98658.00;;;;2068610;28;20224;-48
2021/12/02 01:13:17;;;;;;;1.90;0.90;;;;;17.50;98657.00;;;;2070722;28;20608;-46
2021/12/02 01:14:19;;;;;;;1.70;1.07;;;;;17.50;98665.00;;;;2071014;28;20219;-47
2021/12/02 01:15:19;;;;;;;1.60;0.95;;;;;17.50;98659.00;;;;2062110;28;20301;-45
2021/12/02 01:16:20;;;;;;;1.47;0.87;;;;;17.50;98657.00;;;;2061872;28;20206;-45
2021/12/02 01:17:20;;;;;;;1.80;0.90;;;;;17.50;98665.00;;;;2070741;28;20620;-46
2021/12/02 01:18:22;;;;;;;2.63;0.87;;;;;17.50;98671.00;;;;2072796;28;20275;-47
2021/12/02 01:19:22;;;;;;;1.35;0.93;;;;;17.50;98653.00;;;;2077024;28;20213;-45
2021/12/02 01:20:23;;;;;;;1.77;1.10;;;;;17.50;98672.00;;;;2078383;28;20224;-47
2021/12/02 01:21:25;;;;;;;1.63;0.80;;;;;17.50;98667.00;;;;2078794;28;20209;-46
2021/12/02 01:22:26;;;;;;;1.52;0.80;;;;;17.40;98668.00;;;;2079200;28;20217;-46
2021/12/02 01:23:27;;;;;;;3.40;1.25;;;;;17.50;98667.00;;;;2078626;28;20663;-47
2021/12/02 01:24:28;;;;;;;1.00;0.80;;;;;17.50;98665.00;;;;2062577;28;20396;-46
2021/12/02 01:25:31;;;;;;;1.40;1.00;;;;;17.50;98666.00;;;;2062507;28;21069;-46
2021/12/02 01:26:33;;;;;;;1.70;0.85;;;;;17.50;98674.00;;;;2054148;28;20220;-44
2021/12/02 01:27:37;;;;;;;1.70;1.10;;;;;17.50;98663.00;;;;2061750;28;20219;-46
2021/12/02 01:28:38;;;;;;;1.67;1.30;;;;;17.50;98669.00;;;;2067217;28;20552;-46
2021/12/02 01:29:39;;;;;;;1.67;0.83;;;;;17.50;98677.00;;;;2069986;28;20225;-45
2021/12/02 01:30:39;;;;;;;1.20;0.77;;;;;17.50;98662.00;;;;2067601;28;20395;-46
2021/12/02 01:31:40;;;;;;;2.23;1.07;;;;;17.50;98677.00;;;;2068140;28;20226;-48
2021/12/02 01:32:40;;;;;;;1.80;1.07;;;;;17.50;98678.00;;;;2069494;28;20218;-46
2021/12/02 01:33:43;;;;;;;2.13;1.30;;;;;17.50;98676.00;;;;2077477;28;20241;-45
2021/12/02 01:34:44;;;;;;;2.03;0.90;;;;;17.50;98675.00;;;;2070026;28;20245;-45
2021/12/02 01:35:44;;;;;;;2.50;1.35;;;;;17.50;98672.00;;;;2062643;28;20262;-46
2021/12/02 01:36:45;;;;;;;1.33;1.00;;;;;17.50;98677.00;;;;2062287;28;20302;-45
2021/12/02 01:37:46;;;;;;;1.40;0.80;;;;;17.50;98675.00;;;;2070275;28;20309;-48
2021/12/02 01:38:46;;;;;;;1.83;1.10;;;;;17.50;98670.00;;;;2070922;28;20221;-46
2021/12/02 01:39:48;;;;;;;1.73;1.03;;;;;17.50;98670.00;;;;2068482;28;20210;-45
2021/12/02 01:40:48;;;;;;;1.70;0.90;;;;;17.50;98676.00;;;;2070349;28;20225;-45
2021/12/02 01:41:53;;;;;;;1.03;0.87;;;;;17.50;98666.00;;;;2071090;28;20230;-44
2021/12/02 01:42:56;;;;;;;2.15;1.10;;;;;17.50;98674.00;;;;2063175;28;20242;-45
2021/12/02 01:43:57;;;;;;;2.00;1.30;;;;;17.50;98668.00;;;;2078530;28;20288;-47
2021/12/02 01:44:58;;;;;;;2.25;1.48;;;;;17.50;98675.00;;;;2062221;28;20656;-46
2021/12/02 01:45:59;;;;;;;1.88;0.95;;;;;17.50;98666.00;;;;2061822;28;20733;-46
2021/12/02 01:47:00;;;;;;;1.53;1.13;;;;;17.50;98673.00;;;;2078041;28;20209;-47
2021/12/02 01:48:01;;;;;;;2.15;1.00;;;;;17.50;98665.00;;;;2070288;28;20695;-46
2021/12/02 01:49:03;;;;;;;1.47;0.80;;;;;17.50;98670.00;;;;2070300;28;20221;-45
2021/12/02 01:50:05;;;;;;;2.08;1.20;;;;;17.50;98680.00;;;;2070294;28;20453;-45
2021/12/02 01:51:06;;;;;;;1.08;0.95;;;;;17.50;98680.00;;;;2077498;28;20213;-46
2021/12/02 01:52:09;;;;;;;1.23;0.82;;;;;17.50;98671.00;;;;2078518;28;20271;-45
2021/12/02 01:53:14;;;;;;;1.70;1.40;;;;;17.50;98670.00;;;;2074176;28;20213;-44
2021/12/02 01:54:17;;;;;;;1.23;0.88;;;;;17.40;98671.00;;;;2069980;28;20218;-48
2021/12/02 01:55:17;;;;;;;1.10;0.90;;;;;17.50;98670.00;;;;2062543;28;20211;-46
2021/12/02 01:56:18;;;;;;;1.53;1.23;;;;;17.50;98678.00;;;;2070647;28;20245;-45
2021/12/02 01:57:28;;;;;;;1.17;1.03;;;;;17.50;98676.00;;;;2078085;28;21074;-46
2021/12/02 01:58:29;;;;;;;2.75;1.30;;;;;17.50;98671.00;;;;2067724;28;20222;-49
2021/12/02 01:59:33;;;;;;;1.50;0.90;;;;;17.40;98674.00;;;;2061433;28;20318;-45
2021/12/02 02:00:46;;;;;;;1.73;0.90;;;;;17.40;98668.00;;;;2066226;28;20253;-45
2021/12/02 02:01:51;;;;;;;1.55;1.00;;;;;17.50;98672.00;;;;2072072;28;20218;-47
2021/12/02 02:02:51;;;;;;;1.83;0.80;;;;;17.40;98671.00;;;;2071689;28;20214;-48
2021/12/02 02:03:52;;;;;;;2.70;1.00;;;;;17.40;98677.00;;;;2067783;28;20320;-47
2021/12/02 02:04:52;;;;;;;1.30;0.95;;;;;17.40;98676.00;;;;2078185;28;20224;-45
2021/12/02 02:05:55;;;;;;;1.27;0.93;;;;;17.50;98677.00;;;;2078990;28;20202;-45
2021/12/02 02:07:12;;;;;;;2.05;1.20;;;;;17.40;98675.00;;;;2069963;28;20202;-47
2021/12/02 02:08:22;;;;;;;1.30;0.93;;;;;17.40;98681.00;;;;2075076;28;20229;-47
2021/12/02 02:09:33;;;;;;;1.23;1.00;;;;;17.40;98682.00;;;;2078232;28;20218;-47
2021/12/02 02:10:39;;;;;;;1.75;1.08;;;;;17.50;98675.00;;;;2077814;28;20216;-46
2021/12/02 02:11:39;;;;;;;2.22;1.15;;;;;17.40;98679.00;;;;2074470;28;20219;-47
2021/12/02 02:12:40;;;;;;;1.60;1.23;;;;;17.40;98675.00;;;;2070863;28;20214;-46
2021/12/02 02:13:42;;;;;;;1.10;0.90;;;;;17.40;98680.00;;;;2067845;28;20242;-47
2021/12/02 02:14:46;;;;;;;1.13;0.80;;;;;17.40;98676.00;;;;2069603;28;20237;-47
2021/12/02 02:15:50;;;;;;;1.33;0.95;;;;;17.40;98682.00;;;;2070966;28;20261;-46
2021/12/02 02:16:50;;;;;;;1.08;0.80;;;;;17.40;98677.00;;;;2078870;28;20271;-47
2021/12/02 02:18:01;;;;;;;1.23;0.80;;;;;17.40;98674.00;;;;2076907;28;20218;-46
2021/12/02 02:19:03;;;;;;;1.80;1.30;;;;;17.40;98676.00;;;;2078289;28;20212;-47
2021/12/02 02:20:07;;;;;;;1.30;1.10;;;;;17.40;98677.00;;;;2077556;28;20512;-46
2021/12/02 02:21:14;;;;;;;1.48;1.10;;;;;17.40;98681.00;;;;2074033;28;20221;-47
2021/12/02 02:22:19;;;;;;;2.50;1.10;;;;;17.40;98676.00;;;;2074145;28;20222;-45
2021/12/02 02:23:20;;;;;;;1.45;0.93;;;;;17.40;98679.00;;;;2070033;28;20210;-48
2021/12/02 02:24:21;;;;;;;1.53;0.87;;;;;17.40;98672.00;;;;2070052;28;20623;-46
2021/12/02 02:25:22;;;;;;;1.20;1.03;;;;;17.40;98675.00;;;;2073166;28;20217;-46
2021/12/02 02:26:30;;;;;;;2.22;1.10;;;;;17.40;98668.00;;;;2078137;28;20574;-47
2021/12/02 02:27:31;;;;;;;1.52;0.98;;;;;17.40;98669.00;;;;2060751;28;20215;-46
2021/12/02 02:28:31;;;;;;;1.50;1.10;;;;;17.40;98666.00;;;;2070354;28;20217;-47
2021/12/02 02:29:32;;;;;;;2.10;0.93;;;;;17.40;98658.00;;;;2078603;28;20582;-46
2021/12/02 02:30:32;;;;;;;2.20;1.10;;;;;17.40;98657.00;;;;2074462;28;20248;-47
2021/12/02 02:31:33;;;;;;;1.60;0.97;;;;;17.40;98650.00;;;;2070349;28;20280;-46
2021/12/02 02:32:34;;;;;;;2.88;1.35;;;;;17.40;98662.00;;;;2070580;28;20224;-46
2021/12/02 02:33:37;;;;;;;1.97;1.03;;;;;17.40;98658.00;;;;2072606;28;20688;-46
2021/12/02 02:34:37;;;;;;;1.83;1.00;;;;;17.40;98659.00;;;;2078717;28;20296;-46
2021/12/02 02:35:42;;;;;;;1.20;1.03;;;;;17.40;98659.00;;;;2078868;28;20640;-46
2021/12/02 02:36:55;;;;;;;2.30;1.38;;;;;17.40;98662.00;;;;2078256;28;20293;-46
2021/12/02 02:37:55;;;;;;;1.58;1.10;;;;;17.40;98666.00;;;;2077533;28;20263;-47
2021/12/02 02:38:57;;;;;;;1.67;1.07;;;;;17.40;98662.00;;;;2078332;28;20706;-46
2021/12/02 02:39:57;;;;;;;2.10;1.20;;;;;17.40;98665.00;;;;2078216;28;20259;-46
2021/12/02 02:41:00;;;;;;;2.00;1.13;;;;;17.40;98667.00;;;;2076535;28;20685;-46
2021/12/02 02:42:04;;;;;;;1.70;1.00;;;;;17.40;98660.00;;;;2078526;28;20205;-46
2021/12/02 02:43:08;;;;;;;1.65;1.00;;;;;17.40;98658.00;;;;2078381;28;20223;-47
2021/12/02 02:44:09;;;;;;;1.52;1.10;;;;;17.40;98654.00;;;;2077815;28;20576;-47
2021/12/02 02:45:10;;;;;;;1.10;0.80;;;;;17.40;98659.00;;;;2070484;28;20236;-45
2021/12/02 02:46:22;;;;;;;1.77;0.93;;;;;17.40;98663.00;;;;2070145;28;20581;-47
2021/12/02 02:47:25;;;;;;;1.00;0.90;;;;;17.40;98663.00;;;;2073990;28;20241;-52
2021/12/02 02:48:26;;;;;;;1.20;0.90;;;;;17.50;98665.00;;;;2076108;28;20701;-46
2021/12/02 02:49:26;;;;;;;1.77;1.00;;;;;17.40;98665.00;;;;2074631;28;20256;-47
2021/12/02 02:50:27;;;;;;;1.50;0.97;;;;;17.40;98659.00;;;;2069250;28;20695;-46
2021/12/02 02:51:29;;;;;;;1.57;1.10;;;;;17.40;98663.00;;;;2070006;28;20214;-46
2021/12/02 02:52:32;;;;;;;1.35;1.10;;;;;17.40;98665.00;;;;2069766;28;20222;-46
2021/12/02 02:53:32;;;;;;;1.30;0.98;;;;;17.40;98662.00;;;;2065650;28;20220;-45
2021/12/02 02:54:32;;;;;;;1.80;1.00;;;;;17.40;98672.00;;;;2069643;28;20209;-47
2021/12/02 02:55:36;;;;;;;2.00;1.40;;;;;17.20;98672.00;;;;2076594;28;20214;-47
2021/12/02 02:56:42;;;;;;;1.85;0.88;;;;;17.40;98667.00;;;;2068858;28;20210;-47
2021/12/02 02:58:09;;;;;;;1.60;1.10;;;;;17.40;98668.00;;;;2070591;28;20221;-47
2021/12/02 03:00:15;;;;;;;1.40;1.10;;;;;17.40;98676.00;;;;2072503;28;20297;-45
2021/12/02 03:03:14;;;;;;;1.83;0.90;;;;;17.40;98670.00;;;;2060973;28;20214;-46
2021/12/02 03:05:52;;;;;;;1.58;1.00;;;;;17.40;98665.00;;;;2058164;28;20222;-46
2021/12/02 03:07:56;;;;;;;1.63;1.00;;;;;17.40;98679.00;;;;2060794;28;20485;-46
2021/12/02 03:09:02;;;;;;;1.92;0.90;;;;;17.40;98674.00;;;;2068633;28;20808;-51
2021/12/02 03:11:03;;;;;;;1.50;0.97;;;;;17.40;98675.00;;;;2076777;28;20259;-46
2021/12/02 03:12:16;;;;;;;1.80;1.20;;;;;17.40;98674.00;;;;2076195;28;20213;-46
2021/12/02 03:13:22;;;;;;;1.70;0.85;;;;;17.40;98673.00;;;;2074837;28;20627;-47
2021/12/02 03:14:30;;;;;;;1.50;1.02;;;;;17.40;98673.00;;;;2075537;28;20288;-47
2021/12/02 03:16:50;;;;;;;1.33;0.85;;;;;17.40;98676.00;;;;2077252;28;20216;-47
2021/12/02 03:17:51;;;;;;;1.63;0.80;;;;;17.40;98679.00;;;;2083766;28;20628;-47
2021/12/02 03:18:52;;;;;;;1.73;0.73;;;;;17.40;98687.00;;;;2078435;28;20210;-46
2021/12/02 03:19:52;;;;;;;1.70;1.10;;;;;17.40;98674.00;;;;2078490;28;20202;-46
2021/12/02 03:20:55;;;;;;;1.90;1.30;;;;;17.40;98681.00;;;;2077797;28;20213;-47
2021/12/02 03:21:56;;;;;;;1.65;0.90;;;;;17.40;98676.00;;;;2078672;28;20225;-46
2021/12/02 03:22:56;;;;;;;2.17;0.90;;;;;17.40;98664.00;;;;2071418;28;20310;-47
2021/12/02 03:23:58;;;;;;;1.57;1.10;;;;;17.20;98673.00;;;;2066230;28;20214;-47
2021/12/02 03:24:59;;;;;;;1.92;1.17;;;;;17.40;98676.00;;;;2070072;28;20298;-46
2021/12/02 03:25:59;;;;;;;2.67;1.13;;;;;17.40;98667.00;;;;2069919;28;20665;-46
2021/12/02 03:27:00;;;;;;;1.93;1.07;;;;;17.40;98674.00;;;;2068317;28;20206;-46
2021/12/02 03:28:00;;;;;;;1.83;1.00;;;;;17.40;98675.00;;;;2069419;28;20221;-46
2021/12/02 03:29:01;;;;;;;1.57;0.80;;;;;17.40;98677.00;;;;2069805;28;20217;-49
2021/12/02 03:30:06;;;;;;;3.17;1.33;;;;;17.40;98671.00;;;;2077010;28;20458;-47
2021/12/02 03:31:09;;;;;;;1.85;0.90;;;;;17.40;98673.00;;;;2074200;28;20224;-46
2021/12/02 03:32:10;;;;;;;2.10;1.00;;;;;17.40;98680.00;;;;2078745;28;20232;-47
2021/12/02 03:33:10;;;;;;;1.30;0.90;;;;;17.40;98677.00;;;;2078561;28;20292;-46
2021/12/02 03:34:11;;;;;;;1.57;1.47;;;;;17.40;98672.00;;;;2078429;28;20209;-45
2021/12/02 03:35:11;;;;;;;1.60;1.00;;;;;17.40;98675.00;;;;2078369;28;20209;-46
2021/12/02 03:36:13;;;;;;;2.03;1.00;;;;;17.40;98673.00;;;;2075676;28;20208;-47
2021/12/02 03:37:13;;;;;;;2.50;1.35;;;;;17.40;98679.00;;;;2069505;28;20206;-47
2021/12/02 03:38:14;;;;;;;1.10;1.00;;;;;17.40;98672.00;;;;2062901;28;20256;-47
2021/12/02 03:39:14;;;;;;;1.87;1.10;;;;;17.40;98667.00;;;;2077908;28;20974;-46
2021/12/02 03:40:15;;;;;;;1.53;0.90;;;;;17.40;98686.00;;;;2077575;28;20571;-46
2021/12/02 03:41:16;;;;;;;1.00;0.70;;;;;17.40;98682.00;;;;2076994;28;20209;-46
2021/12/02 03:42:16;;;;;;;2.60;1.00;;;;;17.40;98684.00;;;;2077407;28;20618;-47
2021/12/02 03:43:16;;;;;;;1.97;1.10;;;;;17.40;98670.00;;;;2076091;28;20214;-47
2021/12/02 03:44:17;;;;;;;1.57;1.00;;;;;17.40;98680.00;;;;2068182;28;20272;-46
2021/12/02 03:45:17;;;;;;;1.63;0.90;;;;;17.40;98686.00;;;;2067981;28;20210;-45
2021/12/02 03:46:20;;;;;;;2.20;0.90;;;;;17.40;98675.00;;;;2071859;28;20244;-46
2021/12/02 03:47:22;;;;;;;2.22;1.17;;;;;17.40;98675.00;;;;2069072;28;20206;-46
2021/12/02 03:48:22;;;;;;;0.75;0.68;;;;;17.30;98674.00;;;;2066294;28;20576;-47
2021/12/02 03:49:22;;;;;;;1.63;0.83;;;;;17.40;98678.00;;;;2071893;28;20218;-47
2021/12/02 03:50:23;;;;;;;2.10;0.93;;;;;17.40;98678.00;;;;2071082;28;20305;-46
2021/12/02 03:51:23;;;;;;;1.13;0.90;;;;;17.40;98677.00;;;;2069242;28;20670;-46
2021/12/02 03:52:24;;;;;;;1.10;0.90;;;;;17.40;98672.00;;;;2070354;28;20647;-47
2021/12/02 03:53:24;;;;;;;1.27;1.00;;;;;17.40;98666.00;;;;2071350;28;20247;-47
2021/12/02 03:54:24;;;;;;;1.63;0.80;;;;;17.40;98680.00;;;;2072157;28;20226;-47
2021/12/02 03:55:25;;;;;;;1.00;0.80;;;;;17.40;98685.00;;;;2072159;28;20226;-47
2021/12/02 03:56:25;;;;;;;1.50;1.03;;;;;17.40;98675.00;;;;2071928;28;25036;-47
2021/12/02 03:57:28;;;;;;;1.30;0.90;;;;;17.40;98676.00;;;;2071996;28;20291;-46
2021/12/02 03:58:29;;;;;;;1.95;0.80;;;;;17.40;98675.00;;;;2073877;28;20222;-46
2021/12/02 03:59:31;;;;;;;0.90;0.80;;;;;17.40;98677.00;;;;2079144;28;20304;-45
2021/12/02 04:00:32;;;;;;;1.73;0.70;;;;;17.40;98671.00;;;;2078795;28;20209;-46
2021/12/02 04:01:32;;;;;;;1.10;0.83;;;;;17.40;98671.00;;;;2080095;28;20430;-47
2021/12/02 04:02:34;;;;;;;1.42;1.02;;;;;17.40;98680.00;;;;2080130;28;20214;-46
2021/12/02 04:03:34;;;;;;;1.43;0.90;;;;;17.40;98675.00;;;;2079825;28;20375;-46
2021/12/02 04:04:35;;;;;;;1.73;1.00;;;;;17.40;98671.00;;;;2079991;28;20221;-46
2021/12/02 04:05:35;;;;;;;1.57;0.90;;;;;17.30;98678.00;;;;2079940;28;20224;-46
2021/12/02 04:06:36;;;;;;;1.40;0.90;;;;;17.40;98683.00;;;;2080041;28;20373;-47
2021/12/02 04:07:36;;;;;;;1.23;0.97;;;;;17.40;98669.00;;;;2071129;28;20740;-46
2021/12/02 04:09:43;;;;;;;1.48;1.00;;;;;17.20;98669.00;;;;2070696;28;20253;-47
2021/12/02 04:10:44;;;;;;;1.60;1.10;;;;;17.40;98662.00;;;;2069291;28;20674;-47
2021/12/02 04:12:08;;;;;;;1.38;0.90;;;;;17.40;98679.00;;;;2071610;28;20647;-46
2021/12/02 04:13:19;;;;;;;2.15;1.00;;;;;17.30;98672.00;;;;2071378;28;20225;-47
2021/12/02 04:15:23;;;;;;;1.45;0.82;;;;;17.40;98686.00;;;;2069753;28;20214;-46
2021/12/02 04:15:54;;;;;;;1.75;1.10;;;;;17.40;98679.00;;;;2064092;28;20221;-46
2021/12/02 04:17:01;;;;;;;1.08;0.88;;;;;17.30;98681.00;;;;2079377;28;20752;-46
2021/12/02 04:18:02;;;;;;;1.85;0.80;;;;;17.40;98679.00;;;;2078570;28;20674;-46
2021/12/02 04:19:06;;;;;;;1.93;0.80;;;;;17.00;98683.00;;;;2077025;28;20289;-47
2021/12/02 04:20:11;;;;;;;1.67;0.93;;;;;17.40;98669.00;;;;2079133;28;20216;-45
2021/12/02 04:21:12;;;;;;;1.23;0.75;;;;;17.40;98668.00;;;;2078108;28;20271;-47
2021/12/02 04:22:12;;;;;;;1.20;0.80;;;;;17.40;98679.00;;;;2079143;28;20221;-47
2021/12/02 04:23:12;;;;;;;1.40;0.90;;;;;17.40;98673.00;;;;2077901;28;20209;-46
2021/12/02 04:24:14;;;;;;;1.20;0.73;;;;;17.40;98679.00;;;;2079247;28;20216;-45
2021/12/02 04:25:14;;;;;;;1.58;0.90;;;;;17.40;98674.00;;;;2078353;28;20224;-46
2021/12/02 04:26:14;;;;;;;1.37;0.80;;;;;17.40;98674.00;;;;2076308;28;20236;-46
2021/12/02 04:27:15;;;;;;;1.50;0.97;;;;;17.40;98682.00;;;;2079444;28;20223;-45
2021/12/02 04:28:16;;;;;;;1.42;1.10;;;;;17.40;98684.00;;;;2077207;28;20700;-47
2021/12/02 04:29:16;;;;;;;1.40;1.00;;;;;17.40;98683.00;;;;2079380;28;20228;-47
2021/12/02 04:30:19;;;;;;;1.40;0.90;;;;;17.40;98684.00;;;;2078690;28;20305;-46
2021/12/02 04:31:19;;;;;;;1.58;0.80;;;;;17.30;98681.00;;;;2071258;28;20214;-46
2021/12/02 04:32:20;;;;;;;1.90;1.10;;;;;17.30;98684.00;;;;2071989;28;20206;-46
2021/12/02 04:33:21;;;;;;;1.70;1.20;;;;;17.40;98691.00;;;;2069486;28;20293;-47
2021/12/02 04:34:21;;;;;;;1.23;0.90;;;;;17.40;98689.00;;;;2071391;28;20453;-46
2021/12/02 04:35:21;;;;;;;2.07;1.30;;;;;17.40;98693.00;;;;2071073;28;20519;-47
2021/12/02 04:36:22;;;;;;;2.17;1.03;;;;;17.40;98690.00;;;;2067999;28;20571;-47
2021/12/02 04:37:22;;;;;;;2.47;1.10;;;;;17.30;98699.00;;;;2069859;28;20222;-47
2021/12/02 04:38:23;;;;;;;0.97;0.87;;;;;17.40;98691.00;;;;2066283;28;20206;-46
2021/12/02 04:39:23;;;;;;;3.60;0.97;;;;;17.40;98696.00;;;;2071153;28;20271;-47
2021/12/02 04:40:24;;;;;;;1.53;1.00;;;;;17.40;98694.00;;;;2070889;28;20210;-50
2021/12/02 04:41:25;;;;;;;1.42;0.85;;;;;17.40;98697.00;;;;2071274;28;20216;-46
2021/12/02 04:42:25;;;;;;;1.90;0.90;;;;;17.40;98701.00;;;;2071191;28;20226;-46
2021/12/02 04:43:25;;;;;;;1.57;0.97;;;;;17.40;98705.00;;;;2069997;28;20276;-47
2021/12/02 04:44:26;;;;;;;1.60;1.00;;;;;17.40;98709.00;;;;2070027;28;20213;-46
2021/12/02 04:45:26;;;;;;;1.33;1.00;;;;;17.40;98703.00;;;;2062571;28;20308;-46
2021/12/02 04:46:28;;;;;;;1.93;0.80;;;;;17.40;98703.00;;;;2082103;28;20224;-46
2021/12/02 04:47:29;;;;;;;1.42;1.00;;;;;17.40;98701.00;;;;2078052;28;20221;-46
2021/12/02 04:48:29;;;;;;;1.87;1.13;;;;;17.40;98694.00;;;;2077434;28;20234;-46
2021/12/02 04:49:29;;;;;;;1.03;0.77;;;;;17.40;98699.00;;;;2078918;28;20749;-46
2021/12/02 04:50:30;;;;;;;1.43;0.80;;;;;17.40;98703.00;;;;2077083;28;20723;-47
2021/12/02 04:51:30;;;;;;;0.90;0.60;;;;;17.40;98715.00;;;;2079179;28;20705;-46
2021/12/02 04:52:31;;;;;;;1.73;0.90;;;;;17.40;98698.00;;;;2077645;28;20308;-46
2021/12/02 04:53:31;;;;;;;1.70;1.03;;;;;17.40;98700.00;;;;2077347;28;20652;-46
2021/12/02 04:54:32;;;;;;;1.40;1.00;;;;;17.40;98712.00;;;;2077391;28;20214;-46
2021/12/02 04:55:32;;;;;;;1.43;0.83;;;;;17.40;98701.00;;;;2071204;28;20241;-46
2021/12/02 04:56:33;;;;;;;1.40;1.10;;;;;17.40;98692.00;;;;2071311;28;20579;-46
2021/12/02 04:57:33;;;;;;;2.10;1.00;;;;;17.40;98698.00;;;;2071284;28;20245;-46
2021/12/02 04:58:33;;;;;;;1.20;1.00;;;;;17.30;98701.00;;;;2070421;28;20461;-46
2021/12/02 04:59:34;;;;;;;1.27;0.80;;;;;17.30;98706.00;;;;2066538;28;20292;-46
2021/12/02 05:00:34;;;;;;;1.70;1.00;;;;;17.40;98698.00;;;;2069776;28;20211;-46
2021/12/02 05:01:35;;;;;;;1.47;1.03;;;;;17.40;98695.00;;;;2073303;28;20229;-46
2021/12/02 05:02:35;;;;;;;1.50;1.03;;;;;17.40;98698.00;;;;2079590;28;20754;-46
2021/12/02 05:03:36;;;;;;;1.43;1.00;;;;;17.40;98702.00;;;;2079373;28;21072;-46
2021/12/02 05:04:36;;;;;;;1.77;0.80;;;;;17.40;98704.00;;;;2074794;28;20228;-46
2021/12/02 05:05:37;;;;;;;1.23;0.90;;;;;17.30;98704.00;;;;2076031;28;20488;-46
2021/12/02 05:06:37;;;;;;;1.20;0.90;;;;;17.30;98701.00;;;;2070899;28;20222;-46
2021/12/02 05:07:38;;;;;;;1.43;0.67;;;;;17.40;98709.00;;;;2070443;28;20229;-46
2021/12/02 05:08:38;;;;;;;1.30;0.90;;;;;17.20;98702.00;;;;2065422;28;20875;-46
2021/12/02 05:09:38;;;;;;;1.70;1.00;;;;;17.20;98699.00;;;;2065951;28;20305;-46
2021/12/02 05:10:39;;;;;;;1.27;0.83;;;;;17.40;98698.00;;;;2070454;28;20229;-46
2021/12/02 05:11:39;;;;;;;2.20;1.00;;;;;17.30;98699.00;;;;2071286;28;20357;-46
2021/12/02 05:12:39;;;;;;;1.10;0.90;;;;;17.40;98700.00;;;;2069936;28;20300;-46
2021/12/02 05:13:40;;;;;;;1.13;0.80;;;;;17.40;98698.00;;;;2067812;28;20308;-46
2021/12/02 05:14:41;;;;;;;1.20;0.90;;;;;17.40;98703.00;;;;2070596;28;20412;-46
2021/12/02 05:15:41;;;;;;;1.10;0.87;;;;;17.40;98700.00;;;;2070679;28;20353;-46
2021/12/02 05:16:41;;;;;;;1.03;0.87;;;;;17.30;98702.00;;;;2070887;28;20220;-46
2021/12/02 05:17:42;;;;;;;1.10;0.90;;;;;17.30;98699.00;;;;2068927;28;20505;-46
2021/12/02 05:18:42;;;;;;;1.57;1.00;;;;;17.30;98701.00;;;;2070894;28;20276;-46
2021/12/02 05:19:42;;;;;;;1.10;1.00;;;;;17.40;98712.00;;;;2070319;28;20213;-46
2021/12/02 05:20:43;;;;;;;1.43;0.90;;;;;17.30;98701.00;;;;2068807;28;20296;-46
2021/12/02 05:21:43;;;;;;;1.37;0.87;;;;;17.30;98704.00;;;;2069418;28;20226;-46
2021/12/02 05:22:44;;;;;;;2.00;1.10;;;;;17.40;98703.00;;;;2070435;28;20214;-46
2021/12/02 05:23:44;;;;;;;1.13;0.80;;;;;17.30;98695.00;;;;2075998;28;20229;-46